Time;durP1;ratioP1;P1;durP2;ratioP2;P2;SDS_P1;SDS_P2;PMS_P1;PMS_P2;Temp;Humidity;BMP_temperature;BMP_pressure;BME280_temperature;BME280_humidity;BME280_pressure;Samples;Min_cycle;Max_cycle;Signal;HPM_P1;HPM_P2
2024/01/16 00:00:19;;;;;;;19.10;10.18;;;;;;;-1.42;100.00;100946.59;5032412;28;20014;-77
2024/01/16 00:02:45;;;;;;;15.27;9.13;;;;;;;-1.35;100.00;100949.06;5032579;28;20494;-76
2024/01/16 00:05:10;;;;;;;15.52;9.48;;;;;;;-1.30;100.00;100949.00;5032390;28;20083;-77
2024/01/16 00:07:39;;;;;;;18.45;9.95;;;;;;;-1.35;100.00;100927.94;5036054;28;20022;-77
2024/01/16 00:10:07;;;;;;;17.45;9.88;;;;;;;-1.14;100.00;100934.44;5036574;28;20029;-76
2024/01/16 00:12:33;;;;;;;15.93;8.82;;;;;;;-1.18;100.00;100915.88;5036253;28;20025;-76
2024/01/16 00:14:58;;;;;;;15.80;8.02;;;;;;;-1.11;100.00;100930.16;5036268;28;20053;-76
2024/01/16 00:17:23;;;;;;;14.15;8.20;;;;;;;-1.24;100.00;100928.66;5036232;28;20112;-77
2024/01/16 00:19:49;;;;;;;15.23;8.15;;;;;;;-1.13;100.00;100947.09;5036196;28;20115;-77
2024/01/16 00:22:14;;;;;;;18.05;8.75;;;;;;;-1.42;100.00;100906.91;5036199;28;20029;-76
2024/01/16 00:24:40;;;;;;;12.18;7.22;;;;;;;-1.18;100.00;100954.75;5036123;28;20021;-77
2024/01/16 00:27:05;;;;;;;12.88;6.90;;;;;;;-1.37;100.00;100935.56;5036017;28;20531;-76
2024/01/16 00:29:31;;;;;;;15.25;7.18;;;;;;;-1.20;100.00;100961.50;5036059;28;20041;-76
2024/01/16 00:31:56;;;;;;;14.77;7.38;;;;;;;-1.20;100.00;100956.44;5036114;28;20025;-76
2024/01/16 00:34:22;;;;;;;15.00;7.30;;;;;;;-1.23;100.00;100953.97;5036154;28;20036;-76
2024/01/16 00:36:47;;;;;;;13.93;6.65;;;;;;;-1.17;100.00;100958.13;5035753;28;20021;-77
2024/01/16 00:39:13;;;;;;;16.00;7.45;;;;;;;-1.22;100.00;100939.59;5035814;28;20029;-76
2024/01/16 00:41:39;;;;;;;12.60;6.95;;;;;;;-1.17;100.00;100940.41;5036012;28;20076;-76
2024/01/16 00:44:04;;;;;;;12.38;6.70;;;;;;;-1.34;100.00;100909.38;5035627;28;20049;-77
2024/01/16 00:46:30;;;;;;;13.10;7.13;;;;;;;-1.18;100.00;100948.81;5035530;28;20045;-76
2024/01/16 00:48:55;;;;;;;12.48;6.50;;;;;;;-1.08;100.00;100965.63;5035749;28;20033;-79
2024/01/16 00:51:21;;;;;;;12.85;5.70;;;;;;;-1.06;100.00;100960.53;5035579;28;20026;-78
2024/01/16 00:53:46;;;;;;;16.85;6.03;;;;;;;-1.15;100.00;100951.34;5035738;28;20017;-79
2024/01/16 00:56:12;;;;;;;11.50;5.57;;;;;;;-1.06;100.00;100968.13;5035413;28;20033;-78
2024/01/16 00:58:38;;;;;;;11.70;5.35;;;;;;;-1.02;100.00;100973.13;5035684;28;20420;-78
2024/01/16 01:01:03;;;;;;;10.77;5.40;;;;;;;-1.07;100.00;100961.38;5035511;28;20022;-76
2024/01/16 01:03:29;;;;;;;9.88;5.30;;;;;;;-0.98;100.00;100986.63;5035533;28;20021;-79
2024/01/16 01:05:55;;;;;;;12.98;6.03;;;;;;;-1.13;100.00;100952.16;5035339;28;20064;-77
2024/01/16 01:08:20;;;;;;;10.05;5.25;;;;;;;-1.03;100.00;100961.31;5035259;28;20037;-77
2024/01/16 01:10:45;;;;;;;12.73;5.68;;;;;;;-0.92;100.00;100972.13;5017438;28;20029;-77
2024/01/16 01:13:11;;;;;;;9.20;5.50;;;;;;;-0.97;100.00;100971.38;5035377;28;20025;-77
2024/01/16 01:15:36;;;;;;;11.82;5.85;;;;;;;-0.92;100.00;100973.84;5035317;28;20061;-77
2024/01/16 01:18:02;;;;;;;12.02;6.10;;;;;;;-1.06;100.00;100953.75;5035063;28;20017;-77
2024/01/16 01:20:27;;;;;;;12.10;5.85;;;;;;;-0.93;100.00;100979.78;5035207;28;20117;-77
2024/01/16 01:22:52;;;;;;;13.98;6.00;;;;;;;-1.08;100.00;100954.59;5035051;28;20025;-75
2024/01/16 01:25:18;;;;;;;14.05;6.13;;;;;;;-0.96;100.00;100978.13;5035038;28;20434;-77
2024/01/16 01:27:43;;;;;;;15.70;6.80;;;;;;;-0.98;100.00;100974.78;5035049;28;20029;-77
2024/01/16 01:30:12;;;;;;;14.65;7.05;;;;;;;-0.93;100.00;100967.94;5035061;28;20477;-78
2024/01/16 01:32:38;;;;;;;15.88;6.50;;;;;;;-0.92;100.00;100968.78;5035054;28;20028;-77
2024/01/16 01:35:05;;;;;;;12.32;6.07;;;;;;;-1.00;100.00;100956.19;5034918;28;20465;-77
2024/01/16 01:37:30;;;;;;;16.67;6.28;;;;;;;-0.94;100.00;100961.19;5034564;28;20425;-76
2024/01/16 01:39:56;;;;;;;11.90;5.40;;;;;;;-0.96;100.00;100955.31;5034688;28;20113;-76
2024/01/16 01:42:21;;;;;;;15.90;5.72;;;;;;;-1.00;100.00;100951.13;5017004;28;20124;-77
2024/01/16 01:44:47;;;;;;;11.00;5.30;;;;;;;-0.92;100.00;100964.53;5034692;28;20072;-76
2024/01/16 01:47:13;;;;;;;11.70;6.47;;;;;;;-0.94;100.00;100965.41;5034644;28;20075;-76
2024/01/16 01:49:38;;;;;;;10.75;5.03;;;;;;;-1.16;100.00;100937.00;5034832;28;20033;-77
2024/01/16 01:52:04;;;;;;;18.45;5.47;;;;;;;-0.99;100.00;100975.59;5016340;28;20038;-77
2024/01/16 01:54:31;;;;;;;12.60;5.25;;;;;;;-1.02;100.00;100982.41;5034620;28;20028;-77
2024/01/16 01:56:56;;;;;;;14.07;5.07;;;;;;;-1.05;100.00;100983.31;5034463;28;20021;-77
2024/01/16 01:59:23;;;;;;;11.52;4.90;;;;;;;-1.03;100.00;100980.75;5034496;28;20032;-77
2024/01/16 02:01:52;;;;;;;12.27;5.38;;;;;;;-1.04;100.00;100974.84;5034693;28;20026;-76
2024/01/16 02:04:19;;;;;;;10.77;5.10;;;;;;;-1.10;100.00;100961.41;5034373;28;20052;-76
2024/01/16 02:06:45;;;;;;;10.07;4.60;;;;;;;-0.95;100.00;100974.72;5016502;28;20059;-78
2024/01/16 02:09:13;;;;;;;14.50;4.80;;;;;;;-1.02;100.00;100967.22;5034231;28;20426;-76
2024/01/16 02:11:42;;;;;;;11.85;4.90;;;;;;;-0.91;100.00;100980.59;5034325;28;20079;-76
2024/01/16 02:14:09;;;;;;;11.82;4.35;;;;;;;-0.88;100.00;100983.09;5034221;28;20027;-76
2024/01/16 02:16:39;;;;;;;11.75;3.85;;;;;;;-0.86;100.00;100978.84;5034091;28;20032;-76
2024/01/16 02:19:05;;;;;;;13.57;4.50;;;;;;;-0.84;100.00;100986.41;5034091;28;20400;-76
2024/01/16 02:21:38;;;;;;;9.40;4.03;;;;;;;-0.89;100.00;100982.22;5015847;28;20031;-76
2024/01/16 02:24:05;;;;;;;9.10;3.60;;;;;;;-0.87;100.00;100984.78;5033973;28;20328;-76
2024/01/16 02:26:31;;;;;;;7.97;3.47;;;;;;;-0.94;100.00;100981.47;5033786;28;20026;-76
2024/01/16 02:28:57;;;;;;;8.57;3.95;;;;;;;-0.97;100.00;100983.22;5033189;28;20083;-76
2024/01/16 02:31:22;;;;;;;11.05;3.50;;;;;;;-1.13;100.00;100969.88;5033882;28;20029;-75
2024/01/16 02:33:47;;;;;;;9.10;3.60;;;;;;;-1.06;100.00;100989.25;5033697;28;20041;-76
2024/01/16 02:36:13;;;;;;;8.90;3.22;;;;;;;-1.05;100.00;100990.91;5033827;28;20075;-76
2024/01/16 02:38:39;;;;;;;9.98;3.28;;;;;;;-1.04;100.00;101000.19;5033615;28;20029;-76
2024/01/16 02:41:04;;;;;;;7.05;3.15;;;;;;;-1.22;100.00;100977.59;5033591;28;20504;-76
2024/01/16 02:43:29;;;;;;;10.27;3.03;;;;;;;-1.22;100.00;100980.13;5033741;28;20034;-76
2024/01/16 02:45:55;;;;;;;7.88;2.75;;;;;;;-1.04;100.00;101000.19;5033352;28;20128;-74
2024/01/16 02:48:20;;;;;;;8.70;3.33;;;;;;;-1.01;100.00;100997.59;5033384;28;20033;-75
2024/01/16 02:50:46;;;;;;;7.28;3.15;;;;;;;-0.95;100.00;100994.16;5033327;28;20358;-76
2024/01/16 02:53:11;;;;;;;8.93;3.15;;;;;;;-0.84;100.00;101006.69;5033425;28;20082;-75
2024/01/16 02:55:36;;;;;;;7.82;3.20;;;;;;;-0.78;100.00;101006.63;5033262;28;20034;-75
2024/01/16 02:58:03;;;;;;;11.65;3.72;;;;;;;-0.88;100.00;100990.69;5033016;28;20029;-75
2024/01/16 03:00:28;;;;;;;10.27;3.70;;;;;;;-0.84;100.00;100991.50;5033316;28;20039;-76
2024/01/16 03:02:54;;;;;;;11.30;3.40;;;;;;;-0.64;100.00;101010.63;5014994;28;20067;-76
2024/01/16 03:05:20;;;;;;;11.23;3.80;;;;;;;-0.71;100.00;100987.91;5031939;28;20088;-76
2024/01/16 03:07:45;;;;;;;7.78;3.40;;;;;;;-0.63;100.00;100991.19;5032959;28;20033;-76
2024/01/16 03:10:11;;;;;;;8.23;3.00;;;;;;;-0.67;100.00;100992.94;5033306;28;20051;-76
2024/01/16 03:12:36;;;;;;;7.63;3.08;;;;;;;-0.73;100.00;100994.72;5033140;28;20072;-76
2024/01/16 03:15:02;;;;;;;5.20;2.58;;;;;;;-0.89;100.00;100989.84;5032985;28;20473;-76
2024/01/16 03:17:28;;;;;;;9.15;2.80;;;;;;;-0.95;100.00;100987.41;5032722;28;20036;-75
2024/01/16 03:19:53;;;;;;;8.52;2.58;;;;;;;-0.94;100.00;100981.47;5033155;28;20025;-75
2024/01/16 03:22:18;;;;;;;8.68;2.58;;;;;;;-1.23;100.00;100953.97;5033010;28;20497;-75
2024/01/16 03:24:44;;;;;;;7.45;2.50;;;;;;;-0.90;100.00;101013.50;5032855;28;20547;-76
2024/01/16 03:27:09;;;;;;;5.85;2.15;;;;;;;-0.99;100.00;100988.28;5033307;28;20052;-76
2024/01/16 03:29:35;;;;;;;5.30;1.63;;;;;;;-0.97;100.00;100984.06;5032662;28;20029;-77
2024/01/16 03:32:00;;;;;;;7.65;1.83;;;;;;;-0.79;100.00;101012.53;5032785;28;20041;-76
2024/01/16 03:34:26;;;;;;;5.10;1.67;;;;;;;-0.75;100.00;101006.56;5032958;28;20544;-76
2024/01/16 03:36:52;;;;;;;6.53;2.25;;;;;;;-0.66;100.00;101007.28;5032760;28;20108;-76
2024/01/16 03:39:18;;;;;;;4.50;2.08;;;;;;;-0.61;100.00;100995.38;5032613;28;20029;-76
2024/01/16 03:41:43;;;;;;;6.22;2.28;;;;;;;-0.71;100.00;100971.00;5031633;28;20101;-76
2024/01/16 03:44:09;;;;;;;7.43;2.25;;;;;;;-0.59;100.00;100983.53;5014895;28;20053;-75
2024/01/16 03:46:34;;;;;;;7.38;2.40;;;;;;;-0.67;100.00;100969.28;5032390;28;20076;-76
2024/01/16 03:49:00;;;;;;;5.40;2.30;;;;;;;-0.65;100.00;100973.47;5032530;28;20088;-76
2024/01/16 03:51:25;;;;;;;11.43;2.63;;;;;;;-0.73;100.00;100969.34;5032626;28;20087;-77
2024/01/16 03:53:51;;;;;;;7.20;2.63;;;;;;;-0.70;100.00;100966.75;5032978;28;20124;-76
2024/01/16 03:56:16;;;;;;;5.85;2.47;;;;;;;-0.72;100.00;100968.50;5032569;28;20030;-76
2024/01/16 03:58:42;;;;;;;7.03;2.65;;;;;;;-0.69;100.00;100978.56;5032394;28;20067;-77
2024/01/16 04:01:07;;;;;;;8.93;3.08;;;;;;;-0.76;100.00;100975.31;5032448;28;20488;-78
2024/01/16 04:03:33;;;;;;;6.95;2.97;;;;;;;-0.84;100.00;100971.19;5032309;28;20037;-78
2024/01/16 04:05:58;;;;;;;6.45;2.90;;;;;;;-0.93;100.00;100974.69;5032457;28;20026;-76
2024/01/16 04:08:23;;;;;;;9.68;3.05;;;;;;;-0.99;100.00;100980.69;5032413;28;20032;-76
2024/01/16 04:10:49;;;;;;;11.23;3.30;;;;;;;-1.04;100.00;100976.53;5032329;28;20033;-76
2024/01/16 04:13:14;;;;;;;10.35;3.40;;;;;;;-1.12;100.00;100966.50;5032237;28;20388;-76
2024/01/16 04:15:40;;;;;;;10.35;4.32;;;;;;;-1.11;100.00;100965.63;5032405;28;20053;-77
2024/01/16 04:18:06;;;;;;;11.55;4.45;;;;;;;-1.23;100.00;100948.06;5031107;28;20384;-76
2024/01/16 04:20:31;;;;;;;9.98;4.18;;;;;;;-1.12;100.00;100961.44;5032308;28;20072;-76
2024/01/16 04:22:57;;;;;;;10.60;4.93;;;;;;;-1.12;100.00;100956.34;5032272;28;20033;-76
2024/01/16 04:25:23;;;;;;;12.80;5.97;;;;;;;-1.11;100.00;100962.25;5032165;28;20071;-76
2024/01/16 04:27:48;;;;;;;11.52;5.40;;;;;;;-1.26;100.00;100936.28;5031669;28;20116;-76
2024/01/16 04:30:14;;;;;;;13.90;6.28;;;;;;;-1.10;100.00;100966.47;5030797;28;20120;-76
2024/01/16 04:32:39;;;;;;;10.95;6.43;;;;;;;-1.07;100.00;100966.44;5032233;28;20029;-77
2024/01/16 04:35:05;;;;;;;16.58;7.15;;;;;;;-1.08;100.00;100952.94;5032275;28;20030;-76
2024/01/16 04:37:30;;;;;;;14.35;7.40;;;;;;;-1.04;100.00;100959.63;5032089;28;20028;-76
2024/01/16 04:39:57;;;;;;;12.93;7.70;;;;;;;-1.12;100.00;100948.75;5031829;28;20036;-76
2024/01/16 04:42:23;;;;;;;14.90;7.80;;;;;;;-1.05;100.00;100957.97;5031980;28;20396;-76
2024/01/16 04:44:48;;;;;;;16.15;8.77;;;;;;;-1.15;100.00;100943.75;5031832;28;20124;-75
2024/01/16 04:47:13;;;;;;;15.30;8.77;;;;;;;-1.09;100.00;100958.84;5032062;28;20065;-78
2024/01/16 04:49:41;;;;;;;15.95;8.57;;;;;;;-1.11;100.00;100962.25;5031877;28;20033;-76
2024/01/16 04:52:06;;;;;;;21.73;9.40;;;;;;;-1.12;100.00;100960.59;5015028;28;20560;-76
2024/01/16 04:54:32;;;;;;;16.85;9.82;;;;;;;-1.11;100.00;100967.34;5035587;28;20109;-75
2024/01/16 04:56:57;;;;;;;17.42;9.50;;;;;;;-1.16;100.00;100949.66;5035709;28;20116;-75
2024/01/16 04:59:23;;;;;;;16.25;9.20;;;;;;;-1.12;100.00;100951.28;5035337;28;20025;-75
2024/01/16 05:01:48;;;;;;;18.38;10.43;;;;;;;-1.11;100.00;100955.50;5014447;28;20062;-77
2024/01/16 05:04:14;;;;;;;18.58;10.32;;;;;;;-1.11;100.00;100959.72;5015870;28;20032;-76
2024/01/16 05:06:39;;;;;;;17.70;10.75;;;;;;;-1.13;100.00;100957.22;5015834;28;20026;-77
2024/01/16 05:09:04;;;;;;;17.00;10.30;;;;;;;-1.15;100.00;100951.34;5015576;28;20504;-76
2024/01/16 05:11:30;;;;;;;19.00;10.73;;;;;;;-1.14;100.00;100954.72;5015676;28;20492;-76
2024/01/16 05:13:57;;;;;;;21.73;11.95;;;;;;;-1.10;100.00;100948.72;5015512;28;20105;-76
2024/01/16 05:16:27;;;;;;;16.35;11.07;;;;;;;-1.06;100.00;100953.75;5015587;28;20129;-75
2024/01/16 05:18:53;;;;;;;17.10;10.70;;;;;;;-1.04;100.00;100943.59;5015808;28;20030;-76
2024/01/16 05:21:19;;;;;;;20.63;10.55;;;;;;;-1.00;100.00;100946.06;5015618;28;20036;-76
2024/01/16 05:23:44;;;;;;;21.55;10.68;;;;;;;-1.12;100.00;100918.34;5015424;28;20109;-76
2024/01/16 05:26:10;;;;;;;22.85;10.65;;;;;;;-0.96;100.00;100945.16;5015437;28;20418;-74
2024/01/16 05:28:35;;;;;;;20.92;11.10;;;;;;;-1.05;100.00;100921.66;5014929;28;20057;-76
2024/01/16 05:31:00;;;;;;;18.08;11.18;;;;;;;-0.94;100.00;100943.44;5014077;28;20031;-77
2024/01/16 05:33:26;;;;;;;18.33;10.60;;;;;;;-0.96;100.00;100936.72;5015271;28;20116;-76
2024/01/16 05:35:51;;;;;;;16.70;10.90;;;;;;;-0.99;100.00;100932.53;5014992;28;20030;-76
2024/01/16 05:38:16;;;;;;;20.23;11.07;;;;;;;-1.11;100.00;100909.06;5015340;28;20030;-77
2024/01/16 05:40:42;;;;;;;19.25;11.00;;;;;;;-1.08;100.00;100927.59;5015088;28;20026;-76
2024/01/16 05:43:07;;;;;;;20.50;10.80;;;;;;;-1.12;100.00;100928.50;5014819;28;20038;-76
2024/01/16 05:45:33;;;;;;;15.93;10.50;;;;;;;-1.13;100.00;100931.88;5025455;28;21009;-76
2024/01/16 05:47:58;;;;;;;17.35;10.93;;;;;;;-1.26;100.00;100910.09;5034402;28;20036;-76
2024/01/16 05:50:23;;;;;;;16.90;10.70;;;;;;;-1.18;100.00;100923.50;5034645;28;20099;-76
2024/01/16 05:52:49;;;;;;;19.00;10.65;;;;;;;-1.35;100.00;100892.50;5034400;28;20036;-75
2024/01/16 05:55:14;;;;;;;18.60;10.55;;;;;;;-1.34;100.00;100899.22;5034610;28;20030;-75
2024/01/16 05:57:40;;;;;;;15.40;9.98;;;;;;;-1.31;100.00;100912.69;5034522;28;20424;-76
2024/01/16 06:00:05;;;;;;;19.25;10.50;;;;;;;-1.47;100.00;100896.03;5034176;28;20026;-76
2024/01/16 06:02:31;;;;;;;19.30;9.80;;;;;;;-1.46;100.00;100912.91;5034340;28;20432;-76
2024/01/16 06:04:57;;;;;;;23.10;10.82;;;;;;;-1.50;100.00;100919.66;5033348;28;20064;-76
2024/01/16 06:07:22;;;;;;;20.02;9.90;;;;;;;-1.67;100.00;100890.34;5034335;28;20481;-76
2024/01/16 06:09:47;;;;;;;21.60;9.95;;;;;;;-1.57;100.00;100912.19;5034233;28;20142;-76
2024/01/16 06:12:13;;;;;;;16.23;9.10;;;;;;;-1.61;100.00;100923.19;5034449;28;20040;-76
2024/01/16 06:14:38;;;;;;;20.08;10.13;;;;;;;-1.73;100.00;100902.22;5033998;28;20013;-76
2024/01/16 06:17:05;;;;;;;19.02;9.48;;;;;;;-1.66;100.00;100914.81;5033910;28;20056;-76
2024/01/16 06:19:31;;;;;;;15.13;10.38;;;;;;;-1.69;100.00;100919.91;5033820;28;20032;-76
2024/01/16 06:21:57;;;;;;;19.00;10.15;;;;;;;-1.76;100.00;100901.44;5034054;28;20466;-76
2024/01/16 06:24:22;;;;;;;19.00;9.60;;;;;;;-1.69;100.00;100915.69;5034127;28;20067;-77
2024/01/16 06:26:48;;;;;;;17.60;9.65;;;;;;;-1.83;100.00;100888.00;5033900;28;20068;-75
2024/01/16 06:29:13;;;;;;;16.45;9.00;;;;;;;-1.78;100.00;100895.53;5032265;28;20481;-76
2024/01/16 06:31:38;;;;;;;19.15;10.20;;;;;;;-1.96;100.00;100858.63;5033438;28;20377;-75
2024/01/16 06:34:04;;;;;;;16.00;8.65;;;;;;;-1.68;100.00;100913.97;5033785;28;20354;-76
2024/01/16 06:36:29;;;;;;;19.58;9.55;;;;;;;-1.72;100.00;100905.59;5033692;28;20026;-76
2024/01/16 06:38:54;;;;;;;15.45;8.38;;;;;;;-1.80;100.00;100905.66;5033564;28;20105;-76
2024/01/16 06:41:20;;;;;;;15.73;8.10;;;;;;;-1.70;100.00;100921.59;5033481;28;20052;-76
2024/01/16 06:43:46;;;;;;;15.57;8.63;;;;;;;-1.73;100.00;100921.63;5033619;28;20381;-75
2024/01/16 06:46:11;;;;;;;16.30;9.02;;;;;;;-1.76;100.00;100914.94;5032857;28;20075;-75
2024/01/16 06:48:37;;;;;;;13.80;8.40;;;;;;;-1.70;100.00;100916.53;5031756;28;20041;-75
2024/01/16 06:51:03;;;;;;;16.30;8.40;;;;;;;-1.82;100.00;100906.56;5033383;28;20404;-75
2024/01/16 06:53:29;;;;;;;16.77;8.18;;;;;;;-1.72;100.00;100918.25;5031756;28;20037;-76
2024/01/16 06:55:54;;;;;;;13.60;7.03;;;;;;;-1.67;100.00;100928.31;5033388;28;20022;-75
2024/01/16 06:58:19;;;;;;;15.50;8.00;;;;;;;-1.66;100.00;100922.41;5033311;28;20476;-76
2024/01/16 07:00:46;;;;;;;14.38;7.70;;;;;;;-1.74;100.00;100912.38;5033170;28;20021;-75
2024/01/16 07:03:12;;;;;;;16.15;8.05;;;;;;;-1.64;100.00;100924.06;5033069;28;20060;-75
2024/01/16 07:05:38;;;;;;;17.73;7.75;;;;;;;-1.70;100.00;100911.47;5033181;28;20025;-76
2024/01/16 07:08:03;;;;;;;13.95;7.75;;;;;;;-1.54;100.00;100928.16;5015335;28;20469;-76
2024/01/16 07:10:29;;;;;;;16.77;7.18;;;;;;;-1.50;100.00;100931.50;5033280;28;20100;-76
2024/01/16 07:12:55;;;;;;;20.05;7.70;;;;;;;-1.49;100.00;100934.00;5033195;28;20031;-75
2024/01/16 07:15:20;;;;;;;18.30;8.18;;;;;;;-1.61;100.00;100900.41;5031266;28;20084;-76
2024/01/16 07:17:45;;;;;;;17.55;7.25;;;;;;;-1.46;100.00;100940.75;5032865;28;20433;-76
2024/01/16 07:20:11;;;;;;;13.25;6.90;;;;;;;-1.51;100.00;100932.34;5032897;28;20053;-75
2024/01/16 07:22:37;;;;;;;12.18;7.43;;;;;;;-1.48;100.00;100937.38;5033034;28;20026;-75
2024/01/16 07:25:02;;;;;;;19.33;6.93;;;;;;;-1.47;100.00;100939.06;5032527;28;20018;-75
2024/01/16 07:27:28;;;;;;;11.80;6.55;;;;;;;-1.43;100.00;100948.31;5031415;28;20031;-77
2024/01/16 07:29:53;;;;;;;15.13;7.35;;;;;;;-1.40;100.00;100948.25;5031131;28;20026;-75
2024/01/16 07:32:18;;;;;;;12.15;6.25;;;;;;;-1.43;100.00;100944.94;5033318;28;20022;-74
2024/01/16 07:34:44;;;;;;;12.30;6.45;;;;;;;-1.41;100.00;100949.13;5030964;28;20080;-74
2024/01/16 07:37:09;;;;;;;13.63;7.40;;;;;;;-1.64;100.00;100915.63;5031009;28;20041;-74
2024/01/16 07:39:34;;;;;;;14.18;6.90;;;;;;;-1.43;100.00;100944.94;5032617;28;20029;-73
2024/01/16 07:42:00;;;;;;;12.77;7.13;;;;;;;-1.64;100.00;100916.47;5032388;28;20104;-74
2024/01/16 07:44:26;;;;;;;11.68;7.13;;;;;;;-1.39;100.00;100952.47;5032403;28;20026;-74
2024/01/16 07:46:51;;;;;;;13.52;6.70;;;;;;;-1.51;100.00;100939.94;5032066;28;20088;-76
2024/01/16 07:49:16;;;;;;;9.85;6.70;;;;;;;-1.51;100.00;100943.31;5032437;28;20064;-77
2024/01/16 07:51:42;;;;;;;10.30;6.45;;;;;;;-1.59;100.00;100936.66;5032330;28;20060;-75
2024/01/16 07:54:13;;;;;;;14.43;6.20;;;;;;;-1.45;100.00;100955.09;5032667;28;20068;-72
2024/01/16 07:56:38;;;;;;;11.60;6.03;;;;;;;-1.39;100.00;100966.81;5032386;28;20017;-74
2024/01/16 07:59:04;;;;;;;11.77;6.70;;;;;;;-1.63;100.00;100933.34;5032545;28;20091;-75
2024/01/16 08:01:29;;;;;;;14.13;7.25;;;;;;;-1.37;100.00;100972.75;5032090;28;20029;-76
2024/01/16 08:03:55;;;;;;;11.10;6.38;;;;;;;-1.37;100.00;100981.16;5032290;28;20049;-76
2024/01/16 08:06:21;;;;;;;13.00;6.47;;;;;;;-1.37;100.00;100977.81;5032279;28;20072;-75
2024/01/16 08:08:47;;;;;;;12.77;6.50;;;;;;;-1.32;100.00;100976.03;5032256;28;20025;-78
2024/01/16 08:11:12;;;;;;;14.50;6.45;;;;;;;-1.32;100.00;100968.44;5031858;28;20079;-74
2024/01/16 08:13:38;;;;;;;11.27;5.65;;;;;;;-1.32;100.00;100973.50;5032145;28;20041;-76
2024/01/16 08:16:04;;;;;;;11.82;5.72;;;;;;;-1.30;100.00;100985.28;5032103;28;20033;-75
2024/01/16 08:18:31;;;;;;;11.90;6.03;;;;;;;-1.29;100.00;100979.34;5032109;28;20034;-75
2024/01/16 08:20:56;;;;;;;10.68;5.75;;;;;;;-1.31;100.00;100980.25;5032099;28;20107;-75
2024/01/16 08:23:22;;;;;;;11.40;5.70;;;;;;;-1.61;100.00;100936.69;5032085;28;20064;-75
2024/01/16 08:25:47;;;;;;;12.88;6.47;;;;;;;-1.45;100.00;100960.16;5032136;28;20025;-75
2024/01/16 08:28:13;;;;;;;10.93;6.30;;;;;;;-1.48;100.00;100950.88;5034887;28;20033;-75
2024/01/16 08:30:39;;;;;;;13.20;6.22;;;;;;;-1.42;100.00;100964.34;5035848;28;20366;-75
2024/01/16 08:33:04;;;;;;;10.23;5.72;;;;;;;-1.33;100.00;100972.66;5035770;28;20079;-74
2024/01/16 08:35:29;;;;;;;13.13;5.70;;;;;;;-1.31;100.00;100976.00;5035771;28;20477;-74
2024/01/16 08:37:55;;;;;;;10.68;5.43;;;;;;;-1.26;100.00;100979.34;5035871;28;20030;-72
2024/01/16 08:40:20;;;;;;;10.35;5.10;;;;;;;-1.36;100.00;100956.69;5016327;28;20103;-74
2024/01/16 08:42:46;;;;;;;11.18;5.75;;;;;;;-1.19;100.00;100975.03;5035461;28;20076;-75
2024/01/16 08:45:11;;;;;;;12.98;5.78;;;;;;;-1.29;100.00;100959.09;5035483;28;20061;-75
2024/01/16 08:47:37;;;;;;;13.07;5.50;;;;;;;-1.14;100.00;100980.88;5035260;28;20037;-70
2024/01/16 08:50:02;;;;;;;10.75;4.90;;;;;;;-1.16;100.00;100975.00;5035374;28;20109;-75
2024/01/16 08:52:27;;;;;;;13.18;5.60;;;;;;;-1.31;100.00;100953.22;5035136;28;20029;-75
2024/01/16 08:54:53;;;;;;;10.05;5.47;;;;;;;-1.11;100.00;100980.84;5035359;28;20111;-76
2024/01/16 08:57:18;;;;;;;11.80;5.40;;;;;;;-1.23;100.00;100955.66;5035480;28;20060;-75
2024/01/16 08:59:44;;;;;;;9.73;5.07;;;;;;;-1.10;100.00;100974.06;5035366;28;20083;-74
2024/01/16 09:02:09;;;;;;;13.35;5.32;;;;;;;-1.06;100.00;100976.56;5035066;28;20452;-74
2024/01/16 09:04:34;;;;;;;10.77;5.95;;;;;;;-1.04;100.00;100979.06;5035224;28;20052;-75
2024/01/16 09:07:00;;;;;;;11.48;4.90;;;;;;;-1.09;100.00;100960.53;5033198;28;20033;-75
2024/01/16 09:09:25;;;;;;;13.07;5.18;;;;;;;-0.95;100.00;100974.72;5035032;28;20113;-74
2024/01/16 09:11:50;;;;;;;8.77;4.82;;;;;;;-0.94;100.00;100973.03;5035270;28;20473;-74
2024/01/16 09:14:16;;;;;;;10.20;5.15;;;;;;;-1.01;100.00;100968.88;5035332;28;20072;-77
2024/01/16 09:16:42;;;;;;;10.98;4.95;;;;;;;-0.93;100.00;100985.69;5035035;28;20033;-78
2024/01/16 09:19:09;;;;;;;8.77;5.10;;;;;;;-0.94;100.00;100981.47;5034987;28;20465;-76
2024/01/16 09:21:34;;;;;;;11.57;5.22;;;;;;;-0.87;100.00;100983.06;5034767;28;20113;-75
2024/01/16 09:23:59;;;;;;;9.43;5.22;;;;;;;-0.83;100.00;100972.88;5034831;28;20104;-74
2024/01/16 09:26:25;;;;;;;10.63;4.85;;;;;;;-1.03;100.00;100946.09;5034889;28;20017;-75
2024/01/16 09:28:50;;;;;;;10.43;5.03;;;;;;;-0.88;100.00;100956.03;5035089;28;20017;-75
2024/01/16 09:31:16;;;;;;;10.18;5.28;;;;;;;-1.05;100.00;100922.47;5034772;28;20025;-75
2024/01/16 09:33:41;;;;;;;11.10;4.70;;;;;;;-0.73;100.00;100967.66;5034719;28;20440;-76
2024/01/16 09:36:06;;;;;;;9.38;4.47;;;;;;;-0.87;100.00;100929.00;5017028;28;20104;-76
2024/01/16 09:38:32;;;;;;;9.13;4.57;;;;;;;-0.68;100.00;100953.22;5033248;28;20101;-75
2024/01/16 09:40:59;;;;;;;11.20;5.50;;;;;;;-0.78;100.00;100958.47;5034667;28;20091;-76
2024/01/16 09:43:27;;;;;;;9.48;5.15;;;;;;;-0.73;100.00;100970.19;5034610;28;20120;-76
2024/01/16 09:45:55;;;;;;;8.60;5.03;;;;;;;-0.68;100.00;100977.75;5034422;28;20073;-76
2024/01/16 09:48:20;;;;;;;11.85;4.97;;;;;;;-0.90;100.00;100941.69;5034342;28;20041;-76
2024/01/16 09:50:46;;;;;;;8.55;4.90;;;;;;;-0.78;100.00;100959.28;5034439;28;20091;-79
2024/01/16 09:53:11;;;;;;;9.95;4.72;;;;;;;-0.65;100.00;100975.16;5034351;28;20029;-76
2024/01/16 09:55:37;;;;;;;10.73;5.00;;;;;;;-0.76;100.00;100965.16;5034389;28;20477;-76
2024/01/16 09:58:05;;;;;;;11.43;4.63;;;;;;;-0.70;100.00;100974.38;5034223;28;20029;-77
2024/01/16 10:00:32;;;;;;;11.10;4.95;;;;;;;-0.74;100.00;100970.22;5033125;28;20119;-77
2024/01/16 10:02:59;;;;;;;10.25;4.82;;;;;;;-0.78;100.00;100966.91;5034025;28;20082;-77
2024/01/16 10:05:25;;;;;;;9.00;5.00;;;;;;;-0.87;100.00;100951.81;5034295;28;20159;-74
2024/01/16 10:07:51;;;;;;;7.88;4.72;;;;;;;-0.89;100.00;100961.09;5034108;28;20108;-73
2024/01/16 10:10:18;;;;;;;10.40;4.85;;;;;;;-1.00;100.00;100953.66;5033969;28;20126;-75
2024/01/16 10:12:43;;;;;;;11.68;5.00;;;;;;;-0.92;100.00;100964.53;5034103;28;20029;-76
2024/01/16 10:15:09;;;;;;;10.18;5.55;;;;;;;-0.91;100.00;100963.69;5034002;28;20029;-77
2024/01/16 10:17:39;;;;;;;10.07;4.90;;;;;;;-0.93;100.00;100960.31;5033631;28;20440;-76
2024/01/16 10:20:06;;;;;;;14.07;5.32;;;;;;;-1.22;100.00;100894.84;5032501;28;20435;-76
2024/01/16 10:22:32;;;;;;;11.48;5.20;;;;;;;-0.93;100.00;100941.75;5033820;28;20032;-77
2024/01/16 10:25:08;;;;;;;10.27;4.90;;;;;;;-0.95;100.00;100934.16;5015143;28;20132;-76
2024/01/16 10:27:34;;;;;;;10.02;4.90;;;;;;;-0.93;100.00;100939.22;5033577;28;20021;-76
2024/01/16 10:30:00;;;;;;;10.00;5.40;;;;;;;-0.95;100.00;100941.78;5033781;28;20022;-76
2024/01/16 10:32:29;;;;;;;12.40;6.07;;;;;;;-1.05;100.00;100930.09;5033554;28;20489;-77
2024/01/16 10:35:11;;;;;;;11.02;5.88;;;;;;;-0.99;100.00;100944.34;5033652;28;20493;-75
2024/01/16 10:37:53;;;;;;;9.60;5.72;;;;;;;-1.01;100.00;100946.91;5033461;28;20492;-77
2024/01/16 10:40:20;;;;;;;9.15;5.60;;;;;;;-1.13;100.00;100910.78;5033944;28;20021;-79
2024/01/16 10:42:47;;;;;;;10.80;6.18;;;;;;;-1.28;100.00;100889.00;5033630;28;20025;-80
2024/01/16 10:45:18;;;;;;;10.77;5.97;;;;;;;-1.01;100.00;100929.16;5033234;28;20045;-79
2024/01/16 10:47:46;;;;;;;13.07;5.80;;;;;;;-1.18;100.00;100895.63;5033251;28;20084;-81
2024/01/16 10:50:11;;;;;;;10.07;5.68;;;;;;;-0.97;100.00;100930.81;5014658;28;20057;-74
2024/01/16 10:52:47;;;;;;;13.13;6.40;;;;;;;-1.02;100.00;100912.28;5033803;28;20021;-77
2024/01/16 10:55:19;;;;;;;12.90;6.47;;;;;;;-0.89;100.00;100935.75;5033189;28;20033;-76
2024/01/16 10:57:45;;;;;;;13.10;6.00;;;;;;;-0.88;100.00;100924.78;5033152;28;20034;-78
2024/01/16 11:00:14;;;;;;;12.05;6.10;;;;;;;-0.84;100.00;100923.88;5032974;28;20083;-76
2024/01/16 11:02:58;;;;;;;13.05;6.95;;;;;;;-0.81;100.00;100910.31;5032759;28;20021;-75